Time;durP1;ratioP1;P1;durP2;ratioP2;P2;SDS_P1;SDS_P2;PMS_P1;PMS_P2;Temp;Humidity;BMP_temperature;BMP_pressure;BME280_temperature;BME280_humidity;BME280_pressure;Samples;Min_cycle;Max_cycle;Signal;HPM_P1;HPM_P2
2022/09/03 00:00:09;;;;;;;3.47;1.52;;;;;;;10.89;70.50;101250.27;1732372;82;26438;-77
2022/09/03 00:02:44;;;;;;;2.77;1.50;;;;;;;10.86;70.39;101253.31;1731888;82;27731;-77
2022/09/03 00:06:03;;;;;;;2.17;1.55;;;;;;;10.83;70.22;101249.63;1731916;82;25921;-77
2022/09/03 00:08:52;;;;;;;3.52;1.80;;;;;;;10.79;70.06;101250.48;1753112;81;25966;-77
2022/09/03 00:11:38;;;;;;;2.50;1.55;;;;;;;10.73;70.06;101251.67;1739966;81;25823;-77
2022/09/03 00:14:21;;;;;;;4.15;1.50;;;;;;;10.70;70.17;101254.69;1720985;83;25788;-78
2022/09/03 00:17:17;;;;;;;2.47;1.67;;;;;;;10.68;70.43;101253.52;1752666;81;27715;-78
2022/09/03 00:19:49;;;;;;;6.20;1.95;;;;;;;10.65;70.59;101259.21;1749974;80;25720;-78
2022/09/03 00:22:29;;;;;;;3.22;1.80;;;;;;;10.65;70.90;101253.86;1752867;80;25819;-78
2022/09/03 00:24:59;;;;;;;3.25;1.72;;;;;;;10.64;70.95;101254.88;1729653;81;25853;-78
2022/09/03 00:27:28;;;;;;;3.60;1.85;;;;;;;10.64;70.88;101257.56;1748239;81;29164;-78
2022/09/03 00:30:06;;;;;;;3.58;2.00;;;;;;;10.62;70.79;101262.25;1757690;81;28455;-78
2022/09/03 00:33:09;;;;;;;4.17;2.08;;;;;;;10.60;70.82;101255.39;1746476;81;25882;-77
2022/09/03 00:35:39;;;;;;;3.17;1.70;;;;;;;10.56;70.76;101251.38;1759199;80;26546;-78
2022/09/03 00:38:05;;;;;;;2.00;1.60;;;;;;;10.52;70.79;101254.07;1754281;80;25759;-78
2022/09/03 00:40:46;;;;;;;4.47;2.05;;;;;;;10.52;71.00;101255.41;1765225;80;25806;-78
2022/09/03 00:43:54;;;;;;;2.87;1.67;;;;;;;10.50;71.11;101252.88;1721906;81;32886;-78
2022/09/03 00:46:50;;;;;;;6.05;2.33;;;;;;;10.49;71.22;101248.55;1755916;80;25803;-77
2022/09/03 00:49:39;;;;;;;3.08;1.80;;;;;;;10.47;71.05;101251.90;1758230;80;26354;-78
2022/09/03 00:52:20;;;;;;;3.35;1.77;;;;;;;10.44;70.91;101255.41;1753624;81;25758;-78
2022/09/03 00:55:36;;;;;;;4.50;1.90;;;;;;;10.40;70.92;101262.95;1748051;81;25727;-78
2022/09/03 00:58:25;;;;;;;4.00;1.90;;;;;;;10.38;71.02;101256.93;1718373;82;27472;-78
2022/09/03 01:00:52;;;;;;;2.83;1.90;;;;;;;10.35;71.32;101260.45;1723648;83;25926;-78
2022/09/03 01:03:52;;;;;;;4.22;1.92;;;;;;;10.32;71.51;101260.78;1723765;83;25328;-78
2022/09/03 01:06:36;;;;;;;4.85;1.67;;;;;;;10.31;71.95;101266.63;1722760;83;26204;-77
2022/09/03 01:09:41;;;;;;;3.65;1.87;;;;;;;10.29;71.65;101263.78;1736413;81;26373;-78
2022/09/03 01:12:19;;;;;;;3.08;1.87;;;;;;;10.26;71.78;101263.65;1754291;81;28352;-78
2022/09/03 01:15:09;;;;;;;12.88;2.02;;;;;;;10.23;72.21;101260.45;1730877;81;26480;-78
2022/09/03 01:17:47;;;;;;;3.15;1.77;;;;;;;10.20;72.24;101260.80;1753338;81;25471;-78
2022/09/03 01:20:22;;;;;;;3.72;1.98;;;;;;;10.16;72.22;101258.95;1736824;81;26427;-78
2022/09/03 01:23:10;;;;;;;2.52;2.00;;;;;;;10.14;72.26;101261.48;1745054;81;25763;-78
2022/09/03 01:26:07;;;;;;;2.70;1.70;;;;;;;10.11;72.06;101259.97;1748287;80;27538;-78
2022/09/03 01:28:55;;;;;;;3.40;1.70;;;;;;;10.07;71.96;101267.45;1726286;81;25869;-78
2022/09/03 01:31:44;;;;;;;2.27;1.60;;;;;;;10.04;72.09;101265.61;1725364;81;25758;-78
2022/09/03 01:34:33;;;;;;;3.60;2.00;;;;;;;10.03;72.26;101263.44;1719754;82;26054;-78
2022/09/03 01:37:29;;;;;;;6.92;2.52;;;;;;;10.03;72.15;101258.08;1744229;81;25775;-77
2022/09/03 01:40:36;;;;;;;2.25;1.70;;;;;;;9.98;72.59;101256.42;1725590;81;28290;-77
2022/09/03 01:43:31;;;;;;;3.98;1.70;;;;;;;9.96;72.73;101258.44;1729335;81;26432;-77
2022/09/03 01:46:03;;;;;;;2.62;1.87;;;;;;;9.94;72.54;101255.59;1729182;81;26427;-78
2022/09/03 01:48:46;;;;;;;4.12;2.00;;;;;;;9.91;72.59;101254.07;1732680;81;26479;-78
2022/09/03 01:51:28;;;;;;;4.70;2.27;;;;;;;9.91;72.72;101253.23;1731332;81;26032;-78
2022/09/03 01:54:41;;;;;;;4.62;2.05;;;;;;;9.89;73.10;101249.88;1733299;81;27447;-78
2022/09/03 01:57:34;;;;;;;3.22;2.05;;;;;;;9.87;72.94;101248.72;1727543;81;25928;-78
2022/09/03 02:00:17;;;;;;;4.12;2.00;;;;;;;9.86;72.94;101250.20;1735246;81;25889;-78
2022/09/03 02:02:49;;;;;;;2.70;1.55;;;;;;;9.85;73.04;101247.21;1730717;81;25763;-78
2022/09/03 02:05:22;;;;;;;3.80;1.65;;;;;;;9.82;72.87;101247.03;1731099;81;25643;-78
2022/09/03 02:08:00;;;;;;;3.30;1.90;;;;;;;9.81;72.77;101248.55;1736369;81;28235;-77
2022/09/03 02:10:55;;;;;;;2.65;1.85;;;;;;;9.77;73.07;101246.69;1733597;81;25731;-77
2022/09/03 02:13:29;;;;;;;3.30;1.82;;;;;;;9.75;73.12;101254.05;1721848;81;25737;-77
2022/09/03 02:16:01;;;;;;;4.92;1.90;;;;;;;9.74;73.12;101251.05;1735086;80;25844;-77
2022/09/03 02:18:35;;;;;;;2.55;2.10;;;;;;;9.73;73.28;101245.34;1729893;81;25941;-77
2022/09/03 02:21:02;;;;;;;3.83;1.75;;;;;;;9.72;73.53;101246.37;1729662;81;27481;-77
2022/09/03 02:23:29;;;;;;;4.15;1.90;;;;;;;9.69;73.64;101243.16;1732405;81;25835;-77
2022/09/03 02:26:01;;;;;;;4.58;1.75;;;;;;;9.67;73.91;101248.69;1735479;81;26349;-77
2022/09/03 02:28:30;;;;;;;5.67;3.33;;;;;;;9.62;74.05;101243.02;1738542;81;26205;-77
2022/09/03 02:30:57;;;;;;;3.85;2.00;;;;;;;9.60;74.23;101240.98;1729907;81;25900;-77
2022/09/03 02:33:24;;;;;;;3.67;1.90;;;;;;;9.61;74.21;101245.34;1736054;81;27463;-77
2022/09/03 02:35:52;;;;;;;3.58;1.90;;;;;;;9.60;74.19;101243.66;1728989;81;25773;-77
2022/09/03 02:38:24;;;;;;;3.67;2.00;;;;;;;9.58;74.29;101242.98;1735469;81;26473;-77
2022/09/03 02:40:53;;;;;;;4.08;1.75;;;;;;;9.58;74.31;101238.97;1729444;81;25792;-77
2022/09/03 02:43:30;;;;;;;2.20;1.70;;;;;;;9.54;73.84;101244.31;1730377;81;25923;-77
2022/09/03 02:46:01;;;;;;;3.42;1.92;;;;;;;9.52;73.88;101240.13;1728884;81;27482;-77
2022/09/03 02:48:27;;;;;;;5.50;2.08;;;;;;;9.49;73.80;101243.15;1728919;82;25916;-77
2022/09/03 02:50:54;;;;;;;3.40;1.90;;;;;;;9.48;73.77;101240.97;1728960;81;25931;-77
2022/09/03 02:53:21;;;;;;;2.33;1.80;;;;;;;9.46;73.76;101238.95;1726057;82;25845;-77
2022/09/03 02:55:47;;;;;;;4.35;1.62;;;;;;;9.45;73.99;101245.81;1729662;81;25864;-77
2022/09/03 02:58:13;;;;;;;2.25;2.00;;;;;;;9.44;74.03;101246.80;1732742;81;27290;-77
2022/09/03 03:00:40;;;;;;;2.83;1.92;;;;;;;9.41;74.20;101241.80;1731802;81;26602;-77
2022/09/03 03:03:06;;;;;;;2.72;2.08;;;;;;;9.39;74.28;101239.80;1728587;81;25808;-77
2022/09/03 03:05:49;;;;;;;5.33;2.58;;;;;;;9.38;74.35;101237.61;1740012;81;26227;-77
2022/09/03 03:08:19;;;;;;;3.33;2.40;;;;;;;9.35;74.45;101241.94;1736332;81;25904;-77
2022/09/03 03:10:45;;;;;;;2.85;2.17;;;;;;;9.33;74.44;101240.77;1735763;81;28595;-77
2022/09/03 03:13:13;;;;;;;2.67;1.80;;;;;;;9.32;74.19;101245.77;1738630;81;25792;-77
2022/09/03 03:15:39;;;;;;;3.27;2.00;;;;;;;9.31;74.52;101243.27;1732483;80;25839;-77
2022/09/03 03:18:06;;;;;;;3.45;2.05;;;;;;;9.29;74.35;101251.95;1732023;81;25745;-77
2022/09/03 03:20:33;;;;;;;7.17;2.00;;;;;;;9.27;74.55;101246.77;1736140;81;25711;-77
2022/09/03 03:23:04;;;;;;;2.60;1.87;;;;;;;9.29;74.69;101254.63;1735110;81;27455;-78
2022/09/03 03:25:36;;;;;;;3.15;2.02;;;;;;;9.29;74.41;101259.97;1739185;81;26370;-77
2022/09/03 03:28:03;;;;;;;2.35;1.85;;;;;;;9.30;74.25;101267.00;1739119;80;25844;-77
2022/09/03 03:30:32;;;;;;;3.72;2.60;;;;;;;9.27;74.08;101265.48;1737473;81;26306;-77
2022/09/03 03:32:59;;;;;;;6.00;2.90;;;;;;;9.25;74.15;101264.81;1741348;81;25801;-77
2022/09/03 03:35:25;;;;;;;4.17;2.62;;;;;;;9.25;74.12;101266.15;1702786;82;27517;-77
2022/09/03 03:37:52;;;;;;;7.08;3.70;;;;;;;9.22;74.00;101269.62;1735079;81;25903;-77
2022/09/03 03:40:19;;;;;;;7.47;3.70;;;;;;;9.20;73.91;101264.94;1729780;81;25805;-77
2022/09/03 03:42:45;;;;;;;4.12;2.80;;;;;;;9.17;73.99;101263.42;1730389;81;25784;-77
2022/09/03 03:45:12;;;;;;;7.95;2.92;;;;;;;9.16;73.98;101267.11;1740602;81;25954;-77
2022/09/03 03:47:38;;;;;;;3.30;2.47;;;;;;;9.14;74.09;101266.93;1736808;81;28277;-77
2022/09/03 03:50:05;;;;;;;4.78;2.85;;;;;;;9.13;74.43;101263.94;1737203;81;25785;-77
2022/09/03 03:52:32;;;;;;;3.37;2.00;;;;;;;9.10;74.31;101267.77;1738949;81;25811;-78
2022/09/03 03:54:58;;;;;;;4.30;2.12;;;;;;;9.05;74.17;101266.06;1746642;81;25739;-77
2022/09/03 03:57:24;;;;;;;8.63;2.12;;;;;;;9.02;74.09;101262.88;1733890;81;25919;-77
2022/09/03 03:59:51;;;;;;;4.62;1.90;;;;;;;8.96;74.20;101263.53;1737321;81;28741;-77
2022/09/03 04:02:17;;;;;;;2.37;1.90;;;;;;;8.92;74.08;101260.81;1739901;81;25740;-77
2022/09/03 04:04:44;;;;;;;3.30;1.90;;;;;;;8.89;74.09;101266.00;1742397;81;25746;-77
2022/09/03 04:07:10;;;;;;;3.60;2.10;;;;;;;8.84;74.09;101264.30;1741105;81;25756;-77
2022/09/03 04:09:37;;;;;;;2.00;1.60;;;;;;;8.81;74.20;101269.12;1731951;81;25837;-77
2022/09/03 04:12:07;;;;;;;3.42;2.20;;;;;;;8.78;74.23;101272.11;1736362;81;28299;-77
2022/09/03 04:14:34;;;;;;;4.00;2.25;;;;;;;8.75;74.17;101275.92;1736545;81;25756;-77
2022/09/03 04:17:01;;;;;;;3.58;1.87;;;;;;;8.73;74.30;101277.92;1730675;81;26459;-77
2022/09/03 04:19:30;;;;;;;3.47;2.00;;;;;;;8.72;74.23;101278.09;1713637;82;26253;-77
2022/09/03 04:21:56;;;;;;;5.03;2.22;;;;;;;8.71;74.53;101272.39;1730462;81;25812;-77
2022/09/03 04:24:23;;;;;;;3.40;1.95;;;;;;;8.74;74.91;101274.27;1740916;81;28324;-77
2022/09/03 04:26:49;;;;;;;4.40;2.30;;;;;;;8.75;74.79;101268.40;1748469;81;26390;-77
2022/09/03 04:29:17;;;;;;;3.25;2.20;;;;;;;8.76;75.20;101276.28;1743657;81;25799;-77
2022/09/03 04:32:51;;;;;;;3.08;2.77;;;;;;;8.76;75.38;101276.28;1731165;81;25882;-77
2022/09/03 04:34:12;;;;;;;4.97;2.30;;;;;;;8.75;75.19;101278.59;1739130;81;25753;-77
2022/09/03 04:36:38;;;;;;;2.55;2.05;;;;;;;8.74;75.24;101277.42;1729458;81;27502;-77
2022/09/03 04:39:04;;;;;;;2.72;1.92;;;;;;;8.75;75.59;101277.75;1742857;81;25911;-77
2022/09/03 04:41:31;;;;;;;3.08;2.08;;;;;;;8.76;75.92;101284.30;1738092;81;25855;-77
2022/09/03 04:43:59;;;;;;;5.67;2.27;;;;;;;8.76;76.01;101282.11;1729572;81;25789;-77
2022/09/03 04:46:32;;;;;;;3.20;2.27;;;;;;;8.77;76.41;101277.94;1749438;81;25826;-77
2022/09/03 04:48:56;;;;;;;4.28;2.25;;;;;;;8.78;76.79;101276.95;1730980;81;27579;-77
2022/09/03 04:51:26;;;;;;;3.87;2.40;;;;;;;8.78;77.02;101280.96;1729694;81;26450;-77
2022/09/03 04:53:56;;;;;;;5.97;2.22;;;;;;;8.82;77.29;101280.14;1746462;81;26491;-77
2022/09/03 04:56:26;;;;;;;5.42;2.45;;;;;;;8.82;77.71;101280.14;1729061;81;25593;-77
2022/09/03 04:58:59;;;;;;;3.80;2.52;;;;;;;8.82;77.97;101287.66;1737815;81;26463;-77
2022/09/03 05:01:28;;;;;;;4.60;2.45;;;;;;;8.83;78.26;101296.00;1733575;81;27464;-77
2022/09/03 05:03:56;;;;;;;3.47;2.20;;;;;;;8.85;78.41;101295.86;1736608;81;25837;-77
2022/09/03 05:06:24;;;;;;;5.20;2.25;;;;;;;8.88;78.71;101293.70;1742783;81;26398;-77
2022/09/03 05:08:53;;;;;;;4.62;2.30;;;;;;;8.91;78.94;101296.06;1737692;81;26530;-77
2022/09/03 05:11:21;;;;;;;5.70;2.22;;;;;;;8.95;79.14;101294.75;1722672;81;25803;-77
2022/09/03 05:13:50;;;;;;;3.60;2.60;;;;;;;9.00;79.43;101292.41;1736674;81;26903;-77
2022/09/03 05:16:17;;;;;;;5.25;2.77;;;;;;;9.03;79.53;101295.27;1729482;81;25723;-77
2022/09/03 05:18:45;;;;;;;2.72;2.20;;;;;;;9.08;79.90;101294.30;1712160;81;25834;-77
2022/09/03 05:21:16;;;;;;;4.85;2.55;;;;;;;9.12;80.12;101292.48;1737994;81;25764;-77
2022/09/03 05:23:45;;;;;;;6.10;2.45;;;;;;;9.16;80.39;101295.17;1729904;81;25296;-77
2022/09/03 05:26:16;;;;;;;3.08;2.20;;;;;;;9.23;80.56;101296.71;1740690;81;28279;-77
2022/09/03 05:28:43;;;;;;;2.75;2.00;;;;;;;9.29;80.73;101298.73;1741509;81;25864;-77
2022/09/03 05:31:17;;;;;;;3.58;2.27;;;;;;;9.37;80.82;101301.95;1729378;81;25807;-77
2022/09/03 05:33:49;;;;;;;4.45;2.35;;;;;;;9.48;80.82;101306.98;1737992;81;25843;-77
2022/09/03 05:36:19;;;;;;;7.03;2.62;;;;;;;9.55;81.04;101310.69;1738532;81;25924;-77
2022/09/03 05:38:46;;;;;;;3.03;2.73;;;;;;;9.64;81.28;101305.70;1748065;81;27470;-77
2022/09/03 05:41:14;;;;;;;4.83;2.40;;;;;;;9.74;81.21;101313.92;1733710;81;25784;-77
2022/09/03 05:43:42;;;;;;;4.50;2.47;;;;;;;9.83;81.32;101306.74;1756601;81;26572;-77
2022/09/03 05:46:15;;;;;;;6.95;3.05;;;;;;;9.90;81.57;101297.06;1705527;81;25892;-77
2022/09/03 05:48:41;;;;;;;5.10;2.77;;;;;;;9.96;81.43;101293.72;1742093;81;25974;-77
2022/09/03 05:51:16;;;;;;;3.27;2.25;;;;;;;10.05;81.60;101295.41;1743857;81;27593;-77
2022/09/03 05:53:45;;;;;;;4.40;2.40;;;;;;;10.14;81.66;101290.93;1739014;81;25871;-77
2022/09/03 05:56:18;;;;;;;3.47;2.20;;;;;;;10.21;81.53;101290.08;1740313;81;26403;-77
2022/09/03 05:58:48;;;;;;;4.25;2.55;;;;;;;10.31;81.46;101293.94;1741470;81;25810;-77
2022/09/03 06:01:24;;;;;;;5.83;2.27;;;;;;;10.40;81.33;101295.09;1733981;81;25992;-77
2022/09/03 06:04:00;;;;;;;4.45;2.17;;;;;;;10.50;81.44;101291.72;1731819;81;27413;-77
2022/09/03 06:06:30;;;;;;;3.87;2.15;;;;;;;10.62;81.40;101292.22;1731189;81;25295;-78
2022/09/03 06:09:04;;;;;;;3.27;2.35;;;;;;;10.73;81.14;101290.53;1748526;81;25747;-78
2022/09/03 06:11:33;;;;;;;7.00;2.25;;;;;;;10.83;81.24;101293.34;1735412;81;26026;-77
2022/09/03 06:14:03;;;;;;;4.80;2.00;;;;;;;10.96;80.88;101292.81;1748384;81;25833;-78
2022/09/03 06:16:31;;;;;;;4.00;2.17;;;;;;;11.07;80.48;101292.94;1736711;81;27423;-77
2022/09/03 06:18:59;;;;;;;2.98;2.08;;;;;;;11.17;80.28;101289.05;1739519;81;25846;-78
2022/09/03 06:21:25;;;;;;;6.75;2.47;;;;;;;11.27;80.11;101292.34;1743686;81;25827;-77
2022/09/03 06:23:55;;;;;;;3.92;1.80;;;;;;;11.38;79.87;101289.27;1750552;81;25990;-77
2022/09/03 06:26:23;;;;;;;3.47;1.50;;;;;;;11.48;79.89;101291.23;1737168;81;25619;-77
2022/09/03 06:28:49;;;;;;;3.33;1.90;;;;;;;11.59;79.19;101289.99;1732459;81;27933;-78
2022/09/03 06:31:18;;;;;;;3.45;2.10;;;;;;;11.70;79.22;101293.66;1738095;81;25892;-78
2022/09/03 06:33:50;;;;;;;5.25;2.00;;;;;;;11.81;79.10;101285.20;1739321;81;25813;-78
2022/09/03 06:36:17;;;;;;;4.42;1.87;;;;;;;11.94;78.82;101292.66;1728994;81;26436;-78
2022/09/03 06:38:46;;;;;;;3.50;2.05;;;;;;;12.04;78.22;101298.13;1739349;81;25771;-78
2022/09/03 06:41:22;;;;;;;5.10;1.90;;;;;;;12.15;77.79;101296.86;1739405;81;28285;-78
2022/09/03 06:43:48;;;;;;;2.55;1.80;;;;;;;12.23;77.76;101296.29;1739302;81;25791;-78
2022/09/03 06:46:18;;;;;;;4.15;1.82;;;;;;;12.35;77.58;101289.49;1751464;81;25807;-78
2022/09/03 06:48:46;;;;;;;2.83;1.73;;;;;;;12.49;77.62;101292.40;1738816;81;26274;-77
2022/09/03 06:51:16;;;;;;;6.78;1.85;;;;;;;12.60;77.61;101289.24;1752462;81;25978;-77
2022/09/03 06:53:47;;;;;;;3.95;2.22;;;;;;;12.71;77.29;101293.67;1714518;81;27417;-77
2022/09/03 06:56:17;;;;;;;3.60;1.55;;;;;;;12.82;76.99;101298.61;1739043;81;32952;-77
2022/09/03 06:58:47;;;;;;;2.08;1.42;;;;;;;12.93;76.77;101303.53;1741977;81;26634;-77
2022/09/03 07:01:18;;;;;;;3.33;1.50;;;;;;;13.04;76.49;101296.86;1734130;81;25814;-77
2022/09/03 07:03:47;;;;;;;4.35;1.70;;;;;;;13.13;75.79;101290.37;1742114;81;25799;-77
2022/09/03 07:06:17;;;;;;;4.50;1.65;;;;;;;13.23;75.77;101294.13;1729543;81;27445;-77
2022/09/03 07:08:45;;;;;;;1.70;1.37;;;;;;;13.34;75.80;101298.54;1730271;81;25763;-77
2022/09/03 07:11:16;;;;;;;6.25;1.55;;;;;;;13.44;75.23;101291.00;1745835;81;25786;-77
2022/09/03 07:13:46;;;;;;;1.82;1.47;;;;;;;13.55;74.71;101295.05;1734886;81;25724;-77
2022/09/03 07:16:17;;;;;;;3.45;1.50;;;;;;;13.66;75.37;101298.61;1754592;81;25787;-77
2022/09/03 07:18:44;;;;;;;3.83;1.20;;;;;;;13.77;74.34;101298.93;1743426;81;27518;-76
2022/09/03 07:21:15;;;;;;;2.55;1.62;;;;;;;13.87;74.26;101293.25;1745527;81;25765;-77
2022/09/03 07:23:42;;;;;;;4.45;1.70;;;;;;;13.96;73.15;101290.76;1743838;81;26019;-77
2022/09/03 07:26:13;;;;;;;2.80;1.52;;;;;;;14.05;73.33;101292.81;1755343;81;26215;-77
2022/09/03 07:28:41;;;;;;;;;;;;;;;14.14;72.87;101294.33;1759749;81;26469;-77
2022/09/03 07:31:11;;;;;;;5.15;1.30;;;;;;;14.24;72.77;101305.64;1742552;81;28285;-77
2022/09/03 07:33:38;;;;;;;2.75;1.67;;;;;;;14.33;72.16;101311.22;1745163;81;25882;-77
2022/09/03 07:36:12;;;;;;;2.77;1.60;;;;;;;14.41;71.08;101306.53;1750525;81;25820;-77
2022/09/03 07:38:40;;;;;;;2.65;1.57;;;;;;;14.51;71.49;101314.30;1739434;81;25797;-77
2022/09/03 07:41:08;;;;;;;6.03;1.52;;;;;;;14.60;70.90;101309.09;1741699;81;25839;-77
2022/09/03 07:43:38;;;;;;;3.42;1.70;;;;;;;14.72;71.39;101302.63;1729704;81;27472;-77
2022/09/03 07:46:07;;;;;;;1.85;1.27;;;;;;;14.83;71.04;101303.44;1742673;81;25831;-77
2022/09/03 07:48:34;;;;;;;5.83;1.80;;;;;;;14.93;69.96;101298.52;1744816;81;26329;-77
2022/09/03 07:51:00;;;;;;;2.80;1.40;;;;;;;15.02;69.98;101299.52;1731327;81;26386;-77
2022/09/03 07:53:28;;;;;;;1.50;1.40;;;;;;;15.13;69.57;101300.83;1742354;81;25918;-78
2022/09/03 07:56:07;;;;;;;2.70;1.32;;;;;;;15.23;69.63;101296.73;1739666;81;27442;-77
2022/09/03 07:58:35;;;;;;;4.95;1.30;;;;;;;15.33;69.57;101305.28;1736001;81;25831;-77
2022/09/03 08:01:17;;;;;;;2.22;1.52;;;;;;;15.43;69.60;101305.80;1740998;81;26276;-77
2022/09/03 08:03:46;;;;;;;3.35;1.35;;;;;;;15.54;69.72;101303.03;1743795;81;26328;-77
2022/09/03 08:06:15;;;;;;;3.83;1.47;;;;;;;15.66;69.16;101303.27;1740205;81;25781;-77
2022/09/03 08:08:46;;;;;;;;;;;;;;;15.78;67.84;101306.53;1753841;81;27217;-77
2022/09/03 08:11:20;;;;;;;2.98;1.45;;;;;;;15.86;67.28;101306.88;1730078;81;25982;-77
2022/09/03 08:13:56;;;;;;;2.37;1.50;;;;;;;15.92;68.15;101304.19;1735462;81;25735;-77
2022/09/03 08:16:22;;;;;;;3.17;1.20;;;;;;;16.03;66.98;101310.86;1720405;81;26358;-77
2022/09/03 08:18:50;;;;;;;5.40;1.75;;;;;;;16.10;66.78;101302.26;1740787;81;26487;-77
2022/09/03 08:21:18;;;;;;;4.08;1.67;;;;;;;16.18;66.37;101306.95;1733881;81;28326;-77
2022/09/03 08:23:48;;;;;;;2.85;1.75;;;;;;;16.29;66.58;101305.50;1734874;81;26188;-77
2022/09/03 08:26:16;;;;;;;3.52;1.45;;;;;;;16.42;66.95;101300.11;1729615;81;25308;-77
2022/09/03 08:28:44;;;;;;;2.77;1.67;;;;;;;16.53;65.91;101299.48;1740783;81;25815;-77
2022/09/03 08:31:17;;;;;;;4.37;1.85;;;;;;;16.61;65.46;101300.66;1728677;81;25855;-77
2022/09/03 08:33:48;;;;;;;2.77;1.50;;;;;;;16.70;64.86;101298.02;1739857;81;27477;-77
2022/09/03 08:36:21;;;;;;;3.98;1.60;;;;;;;16.82;64.63;101299.58;1753391;80;25832;-77
2022/09/03 08:38:53;;;;;;;3.25;1.50;;;;;;;16.88;63.28;101295.52;1752185;80;25817;-77
2022/09/03 08:41:56;;;;;;;2.83;1.77;;;;;;;16.96;63.04;101287.67;1754496;80;25796;-77
2022/09/03 08:44:48;;;;;;;1.90;1.55;;;;;;;17.07;63.07;101293.80;1754313;80;25792;-78
2022/09/03 08:47:40;;;;;;;3.25;1.30;;;;;;;17.20;63.12;101290.22;1745028;80;28550;-78
2022/09/03 08:50:30;;;;;;;2.98;1.40;;;;;;;17.28;61.80;101279.98;1736310;81;25784;-78
2022/09/03 08:53:13;;;;;;;1.72;1.40;;;;;;;17.35;62.09;101279.45;1753850;81;25802;-77
2022/09/03 08:55:57;;;;;;;2.90;1.27;;;;;;;17.44;60.80;101279.52;1753319;80;26447;-77
2022/09/03 08:58:31;;;;;;;3.60;1.27;;;;;;;17.51;60.93;101276.81;1744904;80;25795;-77
2022/09/03 09:01:26;;;;;;;4.42;1.20;;;;;;;17.63;60.29;101275.91;1758392;80;27459;-78
2022/09/03 09:04:33;;;;;;;1.65;0.95;;;;;;;17.74;60.03;101273.05;1753870;80;25780;-78
2022/09/03 09:07:24;;;;;;;2.62;1.10;;;;;;;17.81;58.94;101273.01;1754630;80;25799;-77
2022/09/03 09:10:15;;;;;;;2.35;1.25;;;;;;;17.91;58.31;101274.70;1728110;80;25964;-77
2022/09/03 09:13:07;;;;;;;3.42;1.20;;;;;;;17.98;56.88;101269.56;1754045;80;25742;-77
2022/09/03 09:15:51;;;;;;;1.20;0.82;;;;;;;18.05;57.51;101270.33;1726770;81;27530;-77
2022/09/03 09:18:50;;;;;;;2.60;1.00;;;;;;;18.13;55.90;101272.80;1723513;81;26522;-77
2022/09/03 09:21:30;;;;;;;2.27;1.07;;;;;;;18.21;56.26;101271.69;1726677;81;25807;-77
2022/09/03 09:24:02;;;;;;;3.12;1.30;;;;;;;18.28;54.90;101273.83;1728764;80;25797;-77
2022/09/03 09:26:29;;;;;;;1.10;0.72;;;;;;;18.35;56.02;101271.36;1756955;81;25833;-77
2022/09/03 09:29:08;;;;;;;3.47;1.00;;;;;;;18.41;54.71;101268.30;1733926;81;28258;-78
2022/09/03 09:31:37;;;;;;;3.70;1.10;;;;;;;18.52;54.93;101265.42;1715617;81;25312;-78
2022/09/03 09:34:07;;;;;;;2.15;1.25;;;;;;;18.59;53.53;101262.09;1735025;81;25482;-78
2022/09/03 09:36:48;;;;;;;;;;;;;;;18.67;53.93;101260.48;1781723;80;26422;-77
2022/09/03 09:39:15;;;;;;;3.02;1.00;;;;;;;18.73;53.00;101259.06;1764930;80;25841;-78
2022/09/03 09:41:45;;;;;;;3.00;1.00;;;;;;;18.77;52.75;101261.63;1764178;80;27495;-77
2022/09/03 09:44:20;;;;;;;2.67;0.98;;;;;;;18.85;52.61;101264.56;1756835;80;26123;-78
2022/09/03 09:46:47;;;;;;;1.15;0.75;;;;;;;18.91;52.18;101259.06;1769269;80;25860;-77
2022/09/03 09:49:36;;;;;;;4.35;1.90;;;;;;;18.99;52.12;101262.03;1751923;80;25791;-78
2022/09/03 09:52:14;;;;;;;1.40;1.10;;;;;;;19.07;51.49;101262.56;1764042;80;25769;-77
2022/09/03 09:54:41;;;;;;;6.42;1.40;;;;;;;19.12;50.83;101259.97;1765525;80;27659;-77
2022/09/03 09:57:17;;;;;;;2.27;1.20;;;;;;;19.15;50.47;101260.89;1769311;80;25852;-77
2022/09/03 09:59:48;;;;;;;4.33;1.40;;;;;;;19.19;50.13;101263.45;1733166;81;25777;-77
2022/09/03 10:02:27;;;;;;;3.40;1.60;;;;;;;19.27;50.45;101256.06;1752028;80;26478;-77
2022/09/03 10:04:59;;;;;;;3.22;2.02;;;;;;;19.34;50.43;101255.43;1753610;80;26025;-77
2022/09/03 10:07:45;;;;;;;6.77;2.13;;;;;;;19.41;49.89;101247.55;1722710;78;27486;31
2022/09/03 10:10:20;;;;;;;4.30;2.08;;;;;;;19.49;50.38;101251.82;1714742;81;25705;-77
2022/09/03 10:13:12;;;;;;;5.35;1.82;;;;;;;19.54;49.20;101247.37;1709107;82;25823;-78
2022/09/03 10:16:11;;;;;;;5.65;1.72;;;;;;;19.57;48.29;101243.34;1716896;82;25940;-77
2022/09/03 10:19:11;;;;;;;5.45;2.10;;;;;;;19.63;49.42;101243.81;1709994;82;25298;-77
2022/09/03 10:22:04;;;;;;;4.17;1.87;;;;;;;19.69;48.43;101242.36;1711471;82;26997;-78
2022/09/03 10:24:52;;;;;;;2.08;1.25;;;;;;;19.73;48.28;101247.63;1737496;76;26124;-77
2022/09/03 10:27:19;;;;;;;8.05;1.87;;;;;;;19.79;48.79;101239.06;1755553;79;25790;-78
2022/09/03 10:29:46;;;;;;;4.60;1.90;;;;;;;19.87;48.42;101230.05;1763098;79;25818;-78
2022/09/03 10:32:22;;;;;;;8.08;1.80;;;;;;;19.96;48.14;101229.19;1779387;79;25746;-78
2022/09/03 10:35:20;;;;;;;4.80;1.90;;;;;;;20.03;47.82;101226.36;1768804;79;28327;-77
2022/09/03 10:38:00;;;;;;;2.75;1.42;;;;;;;20.05;46.65;101229.16;1769597;79;25934;-78
2022/09/03 10:40:47;;;;;;;2.85;1.35;;;;;;;20.09;46.11;101222.18;1719733;79;26819;31
2022/09/03 10:43:50;;;;;;;3.80;1.77;;;;;;;20.15;45.89;101225.84;1759183;79;25917;-77
2022/09/03 10:46:24;;;;;;;2.80;1.47;;;;;;;20.18;45.29;101222.14;1772082;79;25797;-78
2022/09/03 10:51:56;;;;;;;4.17;1.55;;;;;;;20.24;45.12;101213.06;1706377;81;26282;-78
2022/09/03 10:54:40;;;;;;;2.60;1.30;;;;;;;20.28;46.01;101215.61;1692986;82;25964;-77
2022/09/03 10:57:34;;;;;;;3.15;2.08;;;;;;;20.34;45.34;101213.30;1730389;82;25825;-78
2022/09/03 11:00:13;;;;;;;2.62;1.17;;;;;;;20.31;44.84;101210.23;1708563;79;26526;-77
2022/09/03 11:03:11;;;;;;;2.05;1.32;;;;;;;20.34;44.73;101202.95;1729475;81;28078;-77
2022/09/03 11:05:49;;;;;;;3.40;1.27;;;;;;;20.41;45.27;101204.50;1741957;80;25915;-78
2022/09/03 11:08:27;;;;;;;2.33;1.05;;;;;;;20.55;44.46;101202.38;1716553;82;25893;-77
2022/09/03 11:14:10;;;;;;;5.50;1.10;;;;;;;20.71;43.65;101209.81;1719501;79;25785;-78
2022/09/03 11:19:50;;;;;;;2.12;1.22;;;;;;;20.70;43.77;101201.34;1753663;77;26746;-77
2022/09/03 11:22:18;;;;;;;3.05;1.15;;;;;;;20.71;43.87;101198.40;1738662;79;27136;-77
2022/09/03 11:24:50;;;;;;;2.65;1.02;;;;;;;20.76;43.65;101196.33;1720384;81;26464;-78
2022/09/03 11:27:26;;;;;;;2.45;1.57;;;;;;;20.81;43.09;101190.97;1735047;81;25890;-77
2022/09/03 11:30:08;;;;;;;4.25;1.07;;;;;;;20.87;43.30;101198.73;1738192;81;27479;-77
2022/09/03 11:32:47;;;;;;;1.98;1.20;;;;;;;20.91;42.46;101189.84;1739858;81;25806;-78
2022/09/03 11:35:33;;;;;;;10.08;1.75;;;;;;;20.91;42.03;101182.20;1728373;80;26488;31
2022/09/03 11:38:05;;;;;;;2.00;1.77;;;;;;;20.94;42.61;101193.43;1702055;82;25782;-78
2022/09/03 11:40:38;;;;;;;3.22;1.72;;;;;;;21.02;42.47;101193.61;1721139;81;25862;-78
2022/09/03 11:43:28;;;;;;;2.22;1.20;;;;;;;21.11;42.06;101193.01;1739753;81;28273;-78
2022/09/03 11:46:05;;;;;;;5.25;1.80;;;;;;;21.13;41.45;101184.58;1752609;81;25916;-78
2022/09/03 11:48:42;;;;;;;3.25;1.42;;;;;;;21.14;41.47;101178.91;1737550;81;25706;-78
2022/09/03 11:51:30;;;;;;;5.25;1.60;;;;;;;21.15;41.83;101174.30;1752733;81;25852;-78
2022/09/03 11:54:11;;;;;;;8.93;2.65;;;;;;;21.19;41.25;101174.91;1730445;81;25984;-77
2022/09/03 11:56:37;;;;;;;3.30;1.40;;;;;;;21.24;41.88;101176.37;1710523;79;27451;-76
2022/09/03 11:59:15;;;;;;;2.35;1.30;;;;;;;21.30;42.16;101167.23;1727403;81;26692;-76
2022/09/03 12:01:52;;;;;;;3.90;1.27;;;;;;;21.36;42.22;101164.09;1739185;81;25785;-77
2022/09/03 12:04:41;;;;;;;3.08;1.37;;;;;;;21.40;41.76;101162.52;1718093;81;26486;-77
2022/09/03 12:07:42;;;;;;;2.87;1.57;;;;;;;21.45;41.31;101156.62;1714003;81;25877;-78
2022/09/03 12:10:34;;;;;;;4.80;1.02;;;;;;;21.51;41.16;101161.09;1730137;78;27745;-76
2022/09/03 12:13:28;;;;;;;2.37;1.27;;;;;;;21.53;40.78;101157.30;1731529;81;26219;-77
2022/09/03 12:19:36;;;;;;;4.20;1.50;;;;;;;21.61;40.40;101137.28;1725330;78;25882;-77